< < Back
Terminal Aerodrome Forecast


Current Version              Previous Versions:   1  2  3  4  5  6  7  8  9  

Terminal Aerodrome Forecast

394
FTUS42 KCAE 211100
TAFCAE
TAF
KCAE 211120Z 2112/2212 03005KT P6SM OVC060
     FM211500 05005KT P6SM BKN015 OVC035
     FM212200 06005KT P6SM VCSH OVC025
     FM220400 06006KT 4SM -RA BR OVC012=



Latest METAR

897
SAUS80 KWBC 211100 RRA
MTRCAE
METAR KCAE 211056Z 03003KT 8SM OVC065 07/03 A3023 RMK AO2 SLP238
T00720033


USA.gov is the U.S. government's official web portal to all federal, state and local government web resources and services.